Flight Track Log - Related Links

Times and Time Zones

All times are in EDT time to prevent confusion due to time zone crossing. See the ASQ5958 flight status page for this flight to view local times or setup timezone preferences in your user account.

Time Position Orientation Groundspeed Altitude Reporting Facility
EDT Latitude Longitude Course Direction KTS MPH feet Rate Location/Type
Thu 12:15:41 PM 43.0883 -76.0825 270° West 163 188 1,600  Level Boston Center
Thu 12:16:54 PM 43.0883 -76.1450 270° West 216 249 3,900 1,949 Climbing Boston Center
Thu 12:18:58 PM 43.1728 -76.2956 308° West 278 320 8,000 1,989 Climbing Cleveland Center
Thu 12:19:58 PM 43.1931 -76.3967 285° West 272 313 10,000 1,700 Climbing Cleveland Center
Thu 12:20:58 PM 43.2014 -76.5072 276° West 282 325 11,400 1,400 Climbing Cleveland Center
Thu 12:21:58 PM 43.1992 -76.6242 269° West 296 341 12,800 1,500 Climbing Cleveland Center
Thu 12:22:58 PM 43.1933 -76.7642 267° West 318 366 14,400 1,450 Climbing Cleveland Center
Thu 12:23:58 PM 43.1914 -76.8925 269° West 335 386 15,700 1,250 Climbing Cleveland Center
Thu 12:24:58 PM 43.1914 -77.0264 270° West 347 399 16,900 1,100 Climbing Cleveland Center
Thu 12:25:58 PM 43.1872 -77.1633 268° West 358 412 17,900 950 Climbing Cleveland Center
Thu 12:26:58 PM 43.1850 -77.3058 269° West 368 423 18,800 950 Climbing Cleveland Center
Thu 12:27:58 PM 43.1828 -77.4483 269° West 378 435 19,800 1,150 Climbing Cleveland Center
Thu 12:28:58 PM 43.1783 -77.5994 268° West 389 448 21,100 1,250 Climbing Cleveland Center
Thu 12:29:58 PM 43.1758 -77.7450 269° West 389 448 22,300 1,250 Climbing Cleveland Center
Thu 12:30:58 PM 43.1708 -77.8931 267° West 389 448 23,600 1,300 Climbing Cleveland Center
Thu 12:31:58 PM 43.1678 -78.0356 268° West 389 448 24,900 1,250 Climbing Cleveland Center
Thu 12:32:58 PM 43.1647 -78.1781 268° West 389 448 26,100 1,250 Climbing Cleveland Center
Thu 12:33:58 PM 43.1592 -78.3206 267° West 384 442 27,400 1,250 Climbing Cleveland Center
Thu 12:34:58 PM 43.1575 -78.4489 269° West 384 442 28,600 1,100 Climbing Cleveland Center
Thu 12:35:58 PM 43.1517 -78.5856 267° West 379 436 29,600 950 Climbing Cleveland Center
Thu 12:36:58 PM 43.1475 -78.7222 268° West 379 436 30,500 900 Climbing Cleveland Center
Thu 12:37:58 PM 43.1414 -78.8647 267° West 374 430 31,400 941 Climbing Cleveland Center
Thu 12:38:40 PM 43.1333 -78.9667 264° West 380 437 32,100 941 Climbing Toronto Center
Thu 12:39:40 PM 43.1167 -79.1000 260° West 380 437 33,000 850 Climbing Toronto Center
Thu 12:40:40 PM 43.1167 -79.2500 270° West 380 437 33,800 700 Climbing Toronto Center
Thu 12:41:40 PM 43.1167 -79.4000 270° West 390 449 34,400 750 Climbing Toronto Center
Thu 12:42:40 PM 43.1000 -79.5500 261° West 390 449 35,300 700 Climbing Toronto Center
Thu 12:43:40 PM 43.1000 -79.6833 270° West 390 449 35,800 350 Climbing Toronto Center
Thu 12:44:40 PM 43.1000 -79.8333 270° West 390 449 36,000 100 Climbing Toronto Center
Thu 12:45:40 PM 43.0833 -80.0000 262° West 410 472 36,000  Level Toronto Center
Thu 12:46:40 PM 43.0833 -80.1500 270° West 410 472 36,000  Level Toronto Center
Thu 12:47:40 PM 43.0667 -80.3167 262° West 420 483 36,000  Level Toronto Center
Thu 12:48:40 PM 43.0667 -80.4500 270° West 420 483 36,000  Level Toronto Center
Thu 12:49:40 PM 43.0500 -80.6333 263° West 410 472 36,000  Level Toronto Center
Thu 12:50:40 PM 43.0500 -80.7667 270° West 410 472 36,000  Level Toronto Center
Thu 12:51:40 PM 43.0333 -80.9333 262° West 410 472 36,000 -100 Level Toronto Center
Thu 12:52:40 PM 43.0167 -81.1000 262° West 410 472 35,800 -850 Descending Toronto Center
Thu 12:53:40 PM 43.0167 -81.2333 270° West 410 472 34,300 -1,500 Descending Toronto Center
Thu 12:54:40 PM 43.0167 -81.4167 270° West 420 483 32,800 -1,150 Descending Toronto Center
Thu 12:55:40 PM 43.0167 -81.5500 270° West 420 483 32,000 -400 Descending Toronto Center
Thu 12:56:40 PM 43.0167 -81.7000 270° West 420 483 32,000  Level Toronto Center
Thu 12:57:40 PM 43.0167 -81.8667 270° West 420 483 32,000  Level Toronto Center
Thu 12:58:40 PM 43.0000 -82.0333 262° West 420 483 32,000  Level Toronto Center
Thu 12:59:40 PM 43.0000 -82.2167 270° West 420 483 32,000  Level Toronto Center
Thu 01:00:40 PM 43.0000 -82.3500 270° West 420 483 32,000  Level Toronto Center
Thu 01:01:40 PM 43.0000 -82.5333 270° West 420 483 32,000  Level Toronto Center
Thu 01:02:40 PM 42.9833 -82.6667 260° West 420 483 32,000  Level Toronto Center
Thu 01:03:10 PM 42.9981 -82.7606 282° West 419 482 32,000  Level Cleveland Center
Thu 01:04:10 PM 42.9950 -82.9164 269° West 419 482 32,000  Level Cleveland Center
Thu 01:05:10 PM 42.9875 -83.0753 266° West 419 482 32,000  Level Cleveland Center
Thu 01:06:10 PM 42.9842 -83.2339 268° West 419 482 32,000  Level Cleveland Center
Thu 01:07:10 PM 42.9783 -83.3897 267° West 419 482 32,000  Level Cleveland Center
Thu 01:08:10 PM 42.9725 -83.5456 267° West 419 482 32,000  Level Cleveland Center
Thu 01:09:10 PM 42.9681 -83.7072 268° West 419 482 32,000  Level Cleveland Center
Thu 01:10:10 PM 42.9556 -83.8628 264° West 419 482 32,000  Level Cleveland Center
Thu 01:11:10 PM 42.9386 -84.0150 261° West 419 482 32,000  Level Cleveland Center
Thu 01:12:10 PM 42.9233 -84.1700 262° West 419 482 32,000  Level Cleveland Center
Thu 01:13:10 PM 42.9081 -84.3222 262° West 419 482 32,000 -545 Level Cleveland Center
Thu 01:14:11 PM 42.8947 -84.4775 263° West 412 474 30,900 -976 Descending Chicago Center
Thu 01:15:13 PM 42.8786 -84.6331 262° West 414 476 30,000 -435 Descending Chicago Center
Thu 01:16:15 PM 42.8633 -84.7872 262° West 412 474 30,000  Level Chicago Center
Thu 01:17:17 PM 42.8461 -84.9431 261° West 416 479 30,000  Level Chicago Center
Thu 01:18:19 PM 42.8303 -85.1006 262° West 419 482 30,000  Level Chicago Center
Thu 01:19:21 PM 42.8122 -85.2572 261° West 420 483 30,000  Level Chicago Center
Thu 01:20:23 PM 42.7917 -85.4439 262° West 416 479 30,000 -48 Level Chicago Center
Thu 01:21:25 PM 42.7678 -85.5967 258° West 412 474 29,900 -1,210 Descending Chicago Center
Thu 01:22:27 PM 42.7417 -85.7453 257° West 405 466 27,500 -2,323 Descending Chicago Center
Thu 01:23:29 PM 42.7150 -85.8894 256° West 393 452 25,100 -2,226 Descending Chicago Center
Thu 01:24:31 PM 42.6883 -86.0394 256° West 402 463 22,900 -2,177 Descending Chicago Center
Thu 01:25:33 PM 42.6606 -86.1892 256° West 408 470 20,600 -1,790 Descending Chicago Center
Thu 01:26:35 PM 42.6356 -86.3267 256° West 379 436 19,200 -1,887 Descending Chicago Center
Thu 01:27:37 PM 42.6047 -86.4892 256° West 371 427 16,700 -2,208 Descending Chicago Center
Thu 01:28:40 PM 42.5792 -86.6244 256° West 371 427 14,600 -2,016 Descending Chicago Center
Thu 01:29:42 PM 42.5533 -86.7569 255° West 366 421 12,500 -1,887 Descending Chicago Center
Thu 01:30:44 PM 42.5178 -86.8800 249° West 354 407 10,700 -1,161 Descending Chicago Center
Thu 01:31:46 PM 42.4869 -86.9989 251° West 340 391 10,100 -339 Descending Chicago Center
Thu 01:32:48 PM 42.4528 -87.1122 248° West 328 377 10,000 -532 Descending Chicago Center
Thu 01:33:50 PM 42.4225 -87.2303 251° West 280 322 9,000 -484 Descending Chicago Center
Thu 01:34:52 PM 42.3689 -87.2864 218° Southwest 294 338 9,000  Level Chicago Center
Thu 01:35:54 PM 42.2914 -87.2792 176° South 271 312 9,000  Level Chicago Center
Thu 01:36:56 PM 42.2156 -87.2711 176° South 274 315 9,000 -387 Level Chicago Center
Thu 01:37:58 PM 42.1531 -87.2653 176° South 232 267 8,200 -532 Descending Chicago Center
Thu 01:39:00 PM 42.0914 -87.2600 176° South 221 254 7,900 -581 Descending Chicago Center
Thu 01:40:02 PM 42.0389 -87.2858 200° South 222 255 7,000 -432 Descending Chicago Center
Thu 01:41:05 PM 42.0003 -87.3778 241° Southwest 237 273 7,000  Level Chicago Center
Thu 01:42:07 PM 41.9789 -87.4575 250° West 238 274 7,000 -661 Level Chicago Center
Thu 01:43:03 PM 41.9833 -87.5333 275° West 235 270 5,700 -1,345 Descending Chicago TRACON
Thu 01:44:03 PM 41.9833 -87.6333 270° West 230 265 4,400 -1,200 Descending Chicago TRACON
Thu 01:45:03 PM 41.9833 -87.7000 270° West 214 246 3,300 -1,100 Descending Chicago TRACON
Thu 01:46:03 PM 41.9833 -87.7833 270° West 187 215 2,200 -900 Descending Chicago TRACON
Thu 01:47:03 PM 41.9833 -87.8333 270° West 143 165 1,500 -700 Descending Chicago TRACON
Thu 01:49:00 PM 41.9667 -87.9000 270° West  Level FlightAware

Login

Don't have an account? Register now (free) for customized features, flight alerts, and more!